createdAt,value
2023-01-28T00:01:40.337Z,-0.37
2023-01-28T00:04:07.503Z,-0.37
2023-01-28T00:06:34.585Z,-0.35
2023-01-28T00:09:01.644Z,-0.33
2023-01-28T00:11:28.844Z,-0.33
2023-01-28T00:13:55.909Z,-0.33
2023-01-28T00:16:23.013Z,-0.35
2023-01-28T00:18:50.116Z,-0.37
2023-01-28T00:21:17.179Z,-0.36
2023-01-28T00:23:48.221Z,-0.36
2023-01-28T00:26:18.353Z,-0.37
2023-01-28T00:28:45.407Z,-0.37
2023-01-28T00:31:18.726Z,-0.38
2023-01-28T00:33:47.249Z,-0.37
2023-01-28T00:36:14.881Z,-0.33
2023-01-28T00:38:45.069Z,-0.29
2023-01-28T00:41:14.606Z,-0.29
2023-01-28T00:43:41.989Z,-0.31
2023-01-28T00:46:10.597Z,-0.29
2023-01-28T00:48:38.761Z,-0.27
2023-01-28T00:51:06.111Z,-0.30
2023-01-28T00:53:34.824Z,-0.32
2023-01-28T00:56:02.069Z,-0.32
2023-01-28T00:58:29.365Z,-0.33
2023-01-28T01:00:56.416Z,-0.37
2023-01-28T01:03:23.556Z,-0.38
2023-01-28T01:05:50.770Z,-0.42
2023-01-28T01:08:17.987Z,-0.47
2023-01-28T01:10:45.446Z,-0.52
2023-01-28T01:13:12.756Z,-0.53
2023-01-28T01:15:39.946Z,-0.57
2023-01-28T01:18:07.259Z,-0.59
2023-01-28T01:20:40.076Z,-0.58
2023-01-28T01:23:07.139Z,-0.62
2023-01-28T01:25:34.166Z,-0.64
2023-01-28T01:28:01.255Z,-0.65
2023-01-28T01:30:28.346Z,-0.68
2023-01-28T01:32:55.668Z,-0.70
2023-01-28T01:35:22.729Z,-0.70
2023-01-28T01:37:49.859Z,-0.70
2023-01-28T01:40:17.223Z,-0.71
2023-01-28T01:42:44.361Z,-0.74
2023-01-28T01:45:14.572Z,-0.75
2023-01-28T01:48:10.469Z,-0.75
2023-01-28T01:50:40.166Z,-0.75
2023-01-28T01:53:11.684Z,-0.74
2023-01-28T01:55:41.787Z,-0.80
2023-01-28T01:58:12.113Z,-0.82
2023-01-28T02:00:39.903Z,-0.81
2023-01-28T02:03:07.079Z,-0.84
2023-01-28T02:05:34.139Z,-0.83
2023-01-28T02:08:20.287Z,-0.83
2023-01-28T02:11:07.992Z,-0.83
2023-01-28T02:13:39.884Z,-0.82
2023-01-28T02:16:07.555Z,-0.82
2023-01-28T02:18:34.980Z,-0.82
2023-01-28T02:21:26.203Z,-0.81
2023-01-28T02:23:59.730Z,-0.81
2023-01-28T02:26:45.756Z,-0.80
2023-01-28T02:29:17.529Z,-0.79
2023-01-28T02:31:52.509Z,-0.79
2023-01-28T02:34:54.874Z,-0.80
2023-01-28T02:37:42.707Z,-0.85
2023-01-28T02:40:13.262Z,-0.86
2023-01-28T02:42:41.364Z,-0.82
2023-01-28T02:45:53.825Z,-0.83
2023-01-28T02:48:22.223Z,-0.80
2023-01-28T02:51:10.236Z,-0.79
2023-01-28T02:53:45.322Z,-0.76
2023-01-28T02:56:29.499Z,-0.75
2023-01-28T02:59:26.085Z,-0.74
2023-01-28T03:01:58.411Z,-0.73
2023-01-28T03:04:46.601Z,-0.72
2023-01-28T03:07:15.403Z,-0.74
2023-01-28T03:09:43.600Z,-0.75
2023-01-28T03:12:32.782Z,-0.75
2023-01-28T03:15:28.744Z,-0.74
2023-01-28T03:18:23.807Z,-0.74
2023-01-28T03:21:16.278Z,-0.71
2023-01-28T03:24:20.708Z,-0.69
2023-01-28T03:27:21.625Z,-0.72
2023-01-28T03:30:09.366Z,-0.71
2023-01-28T03:32:55.089Z,-0.74
2023-01-28T03:35:41.566Z,-0.77
2023-01-28T03:38:21.048Z,-0.77
2023-01-28T03:41:00.335Z,-0.82
2023-01-28T03:43:28.747Z,-0.86
2023-01-28T03:45:55.841Z,-0.91
2023-01-28T03:48:26.627Z,-0.95
2023-01-28T03:50:55.748Z,-0.95
2023-01-28T03:53:23.245Z,-0.96
2023-01-28T03:55:51.728Z,-0.94
2023-01-28T03:58:19.455Z,-0.94
2023-01-28T04:00:47.499Z,-0.94
2023-01-28T04:03:17.149Z,-0.98
2023-01-28T04:06:00.212Z,-1.00
2023-01-28T04:08:27.613Z,-0.98
2023-01-28T04:10:55.689Z,-1.01
2023-01-28T04:13:22.958Z,-1.04
2023-01-28T04:15:50.512Z,-1.04
2023-01-28T04:18:17.732Z,-1.02
2023-01-28T04:20:44.816Z,-1.02
2023-01-28T04:23:12.111Z,-1.01
2023-01-28T04:25:39.169Z,-1.00
2023-01-28T04:28:06.204Z,-1.00
2023-01-28T04:30:33.327Z,-1.03
2023-01-28T04:33:00.461Z,-1.03
2023-01-28T04:35:27.622Z,-1.01
2023-01-28T04:37:54.649Z,-1.01
2023-01-28T04:40:21.840Z,-1.02
2023-01-28T04:42:55.517Z,-1.06
2023-01-28T04:45:23.039Z,-1.05
2023-01-28T04:47:50.442Z,-1.09
2023-01-28T04:50:17.677Z,-1.10
2023-01-28T04:52:44.740Z,-1.17
2023-01-28T04:55:11.788Z,-1.20
2023-01-28T04:57:38.958Z,-1.24
2023-01-28T05:00:06.571Z,-1.22
2023-01-28T05:02:33.653Z,-1.21
2023-01-28T05:05:01.641Z,-1.21
2023-01-28T05:07:28.691Z,-1.21
2023-01-28T05:09:55.756Z,-1.18
2023-01-28T05:12:22.826Z,-1.22
2023-01-28T05:14:49.877Z,-1.22
2023-01-28T05:17:17.003Z,-1.27
2023-01-28T05:19:44.911Z,-1.31
2023-01-28T05:22:12.038Z,-1.39
2023-01-28T05:24:39.125Z,-1.42
2023-01-28T05:27:07.491Z,-1.45
2023-01-28T05:29:34.578Z,-1.50
2023-01-28T05:32:02.034Z,-1.56
2023-01-28T05:34:29.066Z,-1.57
2023-01-28T05:36:56.242Z,-1.60
2023-01-28T05:39:23.299Z,-1.60
2023-01-28T05:41:50.364Z,-1.56
2023-01-28T05:44:17.421Z,-1.56
2023-01-28T05:46:46.585Z,-1.52
2023-01-28T05:49:13.856Z,-1.51
2023-01-28T05:51:41.258Z,-1.51
2023-01-28T05:54:09.142Z,-1.53
2023-01-28T05:56:36.593Z,-1.56
2023-01-28T05:59:05.405Z,-1.60
2023-01-28T06:01:32.616Z,-1.64
2023-01-28T06:04:00.639Z,-1.66
2023-01-28T06:06:27.754Z,-1.66
2023-01-28T06:08:54.793Z,-1.66
2023-01-28T06:11:21.969Z,-1.71
2023-01-28T06:13:49.051Z,-1.72
2023-01-28T06:16:16.668Z,-1.74
2023-01-28T06:18:44.724Z,-1.80
2023-01-28T06:21:11.846Z,-1.83
2023-01-28T06:23:38.960Z,-1.86
2023-01-28T06:26:06.391Z,-1.91
2023-01-28T06:28:33.441Z,-1.96
2023-01-28T06:31:01.132Z,-2.01
2023-01-28T06:33:29.477Z,-2.02
2023-01-28T06:35:56.714Z,-2.05
2023-01-28T06:38:23.775Z,-2.05
2023-01-28T06:40:55.869Z,-2.05
2023-01-28T06:43:30.742Z,-2.07
2023-01-28T06:45:58.094Z,-2.10
2023-01-28T06:48:26.270Z,-2.13
2023-01-28T06:50:53.924Z,-2.15
2023-01-28T06:53:21.634Z,-2.21
2023-01-28T06:55:48.969Z,-2.23
2023-01-28T06:58:16.228Z,-2.28
2023-01-28T07:00:43.424Z,-2.32
2023-01-28T07:03:10.576Z,-2.34
2023-01-28T07:05:37.725Z,-2.36
2023-01-28T07:08:05.088Z,-2.40
2023-01-28T07:10:32.244Z,-2.44
2023-01-28T07:12:59.303Z,-2.47
2023-01-28T07:15:26.378Z,-2.52
2023-01-28T07:17:53.517Z,-2.55
2023-01-28T07:20:20.742Z,-2.55
2023-01-28T07:22:47.847Z,-2.57
2023-01-28T07:25:15.172Z,-2.58
2023-01-28T07:27:53.283Z,-2.57
2023-01-28T07:30:21.440Z,-2.55
2023-01-28T07:32:53.442Z,-2.59
2023-01-28T07:35:20.893Z,-2.62
2023-01-28T07:37:55.908Z,-2.63
2023-01-28T07:40:23.388Z,-2.69
2023-01-28T07:42:50.732Z,-2.68
2023-01-28T07:45:17.802Z,-2.70
2023-01-28T07:47:44.935Z,-2.73
2023-01-28T07:50:12.436Z,-2.77
2023-01-28T07:52:44.657Z,-2.77
2023-01-28T07:55:15.286Z,-2.79
2023-01-28T07:58:09.847Z,-2.75
2023-01-28T08:00:37.542Z,-2.74
2023-01-28T08:03:13.402Z,-2.71
2023-01-28T08:05:44.936Z,-2.68
2023-01-28T08:08:12.452Z,-2.68
2023-01-28T08:10:39.847Z,-2.64
2023-01-28T08:13:07.631Z,-2.62
2023-01-28T08:15:35.367Z,-2.61
2023-01-28T08:18:03.611Z,-2.65
2023-01-28T08:20:31.007Z,-2.71
2023-01-28T08:23:08.644Z,-2.76
2023-01-28T08:25:35.872Z,-2.79
2023-01-28T08:28:04.197Z,-2.77
2023-01-28T08:30:31.557Z,-2.77
2023-01-28T08:32:59.548Z,-2.74
2023-01-28T08:35:27.545Z,-2.74
2023-01-28T08:37:54.891Z,-2.74
2023-01-28T08:40:22.232Z,-2.75
2023-01-28T08:42:50.390Z,-2.74
2023-01-28T08:45:18.117Z,-2.76
2023-01-28T08:47:58.975Z,-2.75
2023-01-28T08:50:27.970Z,-2.76
2023-01-28T08:52:57.079Z,-2.69
2023-01-28T08:55:25.008Z,-2.66
2023-01-28T08:57:52.252Z,-2.62
2023-01-28T09:00:19.756Z,-2.62
2023-01-28T09:02:46.984Z,-2.63
2023-01-28T09:05:15.094Z,-2.60
2023-01-28T09:07:42.243Z,-2.59
2023-01-28T09:10:10.041Z,-2.57
2023-01-28T09:12:37.441Z,-2.59
2023-01-28T09:15:05.603Z,-2.57
2023-01-28T09:17:32.648Z,-2.60
2023-01-28T09:19:59.669Z,-2.58
2023-01-28T09:22:26.841Z,-2.57
2023-01-28T09:24:53.926Z,-2.61
2023-01-28T09:27:20.992Z,-2.57
2023-01-28T09:29:48.213Z,-2.50
2023-01-28T09:32:15.493Z,-2.43
2023-01-28T09:34:44.396Z,-2.38
2023-01-28T09:37:12.420Z,-2.35
2023-01-28T09:39:39.470Z,-2.34
2023-01-28T09:42:25.010Z,-2.39
2023-01-28T09:45:16.089Z,-2.38
2023-01-28T09:47:47.434Z,-2.39
2023-01-28T09:50:35.758Z,-2.36
2023-01-28T09:53:07.887Z,-2.34
2023-01-28T09:55:38.181Z,-2.32
2023-01-28T09:58:07.827Z,-2.31
2023-01-28T10:00:41.936Z,-2.27
2023-01-28T10:03:17.952Z,-2.29
2023-01-28T10:05:58.158Z,-2.29
2023-01-28T10:08:34.452Z,-2.27
2023-01-28T10:11:37.808Z,-2.23
2023-01-28T10:14:06.997Z,-2.27
2023-01-28T10:16:47.021Z,-2.25
2023-01-28T10:19:27.368Z,-2.20
2023-01-28T10:22:04.670Z,-2.17
2023-01-28T10:24:35.994Z,-2.17
2023-01-28T10:27:11.021Z,-2.11
2023-01-28T10:29:39.829Z,-2.12
2023-01-28T10:32:17.741Z,-2.08
2023-01-28T10:34:44.844Z,-2.06
2023-01-28T10:37:13.705Z,-2.04
2023-01-28T10:39:40.900Z,-2.01
2023-01-28T10:42:28.252Z,-2.02
2023-01-28T10:45:02.659Z,-2.06
2023-01-28T10:47:39.979Z,-2.06
2023-01-28T10:50:16.001Z,-2.11
2023-01-28T10:53:03.062Z,-2.09
2023-01-28T10:55:36.819Z,-2.12
2023-01-28T10:58:05.386Z,-2.11
2023-01-28T11:00:37.206Z,-2.08
2023-01-28T11:03:04.589Z,-2.13
2023-01-28T11:05:31.850Z,-2.12
2023-01-28T11:08:15.494Z,-2.12
2023-01-28T11:10:43.554Z,-2.10
2023-01-28T11:13:19.902Z,-2.16
2023-01-28T11:15:51.647Z,-2.20
2023-01-28T11:18:28.488Z,-2.20
2023-01-28T11:21:00.617Z,-2.18
2023-01-28T11:23:29.982Z,-2.15
2023-01-28T11:26:05.204Z,-2.19
2023-01-28T11:28:32.837Z,-2.14
2023-01-28T11:31:01.881Z,-2.16
2023-01-28T11:33:36.935Z,-2.17
2023-01-28T11:36:21.984Z,-2.13
2023-01-28T11:39:17.028Z,-2.11
2023-01-28T11:41:44.224Z,-2.09
2023-01-28T11:44:25.500Z,-2.07
2023-01-28T11:47:11.738Z,-2.09
2023-01-28T11:50:16.680Z,-2.14
2023-01-28T11:53:10.218Z,-2.15
2023-01-28T11:55:42.337Z,-2.16
2023-01-28T11:58:19.728Z,-2.15
2023-01-28T12:00:57.386Z,-2.08
2023-01-28T12:03:56.531Z,-2.08
2023-01-28T12:06:58.395Z,-2.02
2023-01-28T12:09:29.667Z,-2.03
2023-01-28T12:12:12.049Z,-2.01
2023-01-28T12:15:01.875Z,-2.00
2023-01-28T12:17:49.255Z,-2.00
2023-01-28T12:20:27.768Z,-1.97
2023-01-28T12:23:03.537Z,-1.96
2023-01-28T12:25:51.568Z,-1.99
2023-01-28T12:28:37.828Z,-1.99
2023-01-28T12:31:14.441Z,-2.02
2023-01-28T12:33:57.241Z,-2.03
2023-01-28T12:36:49.528Z,-2.05
2023-01-28T12:39:22.832Z,-2.04
2023-01-28T12:42:26.245Z,-2.07
2023-01-28T12:44:59.519Z,-2.12
2023-01-28T12:47:32.278Z,-2.09
2023-01-28T12:50:11.508Z,-2.10
2023-01-28T12:52:45.661Z,-2.07
2023-01-28T12:55:22.744Z,-2.02
2023-01-28T12:57:53.677Z,-2.06
2023-01-28T13:00:40.818Z,-2.01
2023-01-28T13:03:13.735Z,-2.02
2023-01-28T13:06:04.833Z,-2.03
2023-01-28T13:08:32.341Z,-2.01
2023-01-28T13:11:01.258Z,-1.98
2023-01-28T13:13:36.569Z,-1.93
2023-01-28T13:16:05.787Z,-1.94
2023-01-28T13:18:40.590Z,-1.97
2023-01-28T13:21:12.855Z,-1.99
2023-01-28T13:23:46.336Z,-2.01
2023-01-28T13:26:41.378Z,-2.04
2023-01-28T13:29:20.857Z,-2.05
2023-01-28T13:31:52.275Z,-2.04
2023-01-28T13:34:56.272Z,-2.12
2023-01-28T13:37:39.020Z,-2.20
2023-01-28T13:40:23.752Z,-2.19
2023-01-28T13:43:05.452Z,-2.18
2023-01-28T13:45:33.765Z,-2.16
2023-01-28T13:48:13.071Z,-2.14
2023-01-28T13:50:42.557Z,-2.15
2023-01-28T13:53:31.804Z,-2.17
2023-01-28T13:55:59.389Z,-2.18
2023-01-28T13:58:51.259Z,-2.15
2023-01-28T14:01:37.921Z,-2.12
2023-01-28T14:04:26.528Z,-2.08
2023-01-28T14:07:06.993Z,-2.07
2023-01-28T14:10:13.941Z,-2.03
2023-01-28T14:13:02.648Z,-2.07
2023-01-28T14:15:48.922Z,-2.13
2023-01-28T14:18:26.450Z,-2.12
2023-01-28T14:20:55.427Z,-2.12
2023-01-28T14:23:24.910Z,-2.16
2023-01-28T14:26:03.984Z,-2.17
2023-01-28T14:28:39.458Z,-2.14
2023-01-28T14:31:12.592Z,-2.13
2023-01-28T14:33:40.924Z,-2.12
2023-01-28T14:36:11.514Z,-2.09
2023-01-28T14:38:43.482Z,-2.03
2023-01-28T14:41:21.302Z,-2.02
2023-01-28T14:43:48.482Z,-1.98
2023-01-28T14:46:31.339Z,-1.94
2023-01-28T14:49:28.258Z,-1.92
2023-01-28T14:52:13.252Z,-1.92
2023-01-28T14:54:43.338Z,-1.92
2023-01-28T14:57:38.517Z,-1.91
2023-01-28T15:00:20.279Z,-1.92
2023-01-28T15:02:47.428Z,-1.90
2023-01-28T15:05:20.327Z,-1.89
2023-01-28T15:07:49.943Z,-1.88
2023-01-28T15:10:26.413Z,-1.87
2023-01-28T15:12:59.946Z,-1.85
2023-01-28T15:15:33.396Z,-1.88
2023-01-28T15:18:03.744Z,-1.89
2023-01-28T15:20:31.213Z,-1.89
2023-01-28T15:22:58.829Z,-1.84
2023-01-28T15:25:28.347Z,-1.83
2023-01-28T15:28:00.994Z,-1.82
2023-01-28T15:30:30.718Z,-1.85
2023-01-28T15:33:09.766Z,-1.86
2023-01-28T15:35:37.014Z,-1.87
2023-01-28T15:38:05.244Z,-1.91
2023-01-28T15:40:41.735Z,-1.89
2023-01-28T15:43:17.817Z,-1.90
2023-01-28T15:45:48.122Z,-1.90
2023-01-28T15:48:15.717Z,-1.89
2023-01-28T15:50:46.441Z,-1.87
2023-01-28T15:53:14.579Z,-1.85
2023-01-28T15:55:42.912Z,-1.88
2023-01-28T15:58:29.808Z,-1.94
2023-01-28T16:01:23.220Z,-1.94
2023-01-28T16:04:02.349Z,-1.98
2023-01-28T16:06:36.201Z,-1.96
2023-01-28T16:09:22.171Z,-1.98
2023-01-28T16:11:49.269Z,-2.01
2023-01-28T16:14:21.738Z,-2.05
2023-01-28T16:16:49.211Z,-2.16
2023-01-28T16:19:26.242Z,-2.20
2023-01-28T16:21:53.343Z,-2.27
2023-01-28T16:24:26.658Z,-2.26
2023-01-28T16:27:00.894Z,-2.21
2023-01-28T16:29:30.900Z,-2.16
2023-01-28T16:31:59.970Z,-2.14
2023-01-28T16:34:30.115Z,-2.10
2023-01-28T16:36:59.681Z,-2.04
2023-01-28T16:39:26.753Z,-2.03
2023-01-28T16:41:53.963Z,-2.06
2023-01-28T16:44:21.024Z,-2.05
2023-01-28T16:46:48.247Z,-2.07
2023-01-28T16:49:15.383Z,-2.07
2023-01-28T16:51:44.096Z,-2.06
2023-01-28T16:54:13.931Z,-2.07
2023-01-28T16:56:45.697Z,-2.07
2023-01-28T16:59:15.610Z,-2.06
2023-01-28T17:01:46.540Z,-2.07
2023-01-28T17:04:13.744Z,-2.09
2023-01-28T17:06:43.388Z,-2.11
2023-01-28T17:09:11.856Z,-2.10
2023-01-28T17:11:42.293Z,-2.06
2023-01-28T17:14:10.140Z,-2.05
2023-01-28T17:16:37.928Z,-2.04
2023-01-28T17:19:05.191Z,-2.08
2023-01-28T17:21:32.396Z,-2.07
2023-01-28T17:24:00.886Z,-2.08
2023-01-28T17:26:29.134Z,-2.08
2023-01-28T17:28:56.459Z,-2.08
2023-01-28T17:31:23.754Z,-2.08
2023-01-28T17:33:55.023Z,-2.08
2023-01-28T17:36:23.053Z,-2.14
2023-01-28T17:38:50.432Z,-2.15
2023-01-28T17:41:17.780Z,-2.12
2023-01-28T17:43:50.393Z,-2.13
2023-01-28T17:46:18.987Z,-2.15
2023-01-28T17:48:46.401Z,-2.19
2023-01-28T17:51:14.099Z,-2.20
2023-01-28T17:53:45.518Z,-2.28
2023-01-28T17:56:17.528Z,-2.31
2023-01-28T17:58:44.686Z,-2.31
2023-01-28T18:01:11.814Z,-2.31
2023-01-28T18:03:38.958Z,-2.30
2023-01-28T18:06:07.282Z,-2.28
2023-01-28T18:08:35.151Z,-2.23
2023-01-28T18:11:02.968Z,-2.18
2023-01-28T18:13:30.066Z,-2.15
2023-01-28T18:15:57.194Z,-2.14
2023-01-28T18:18:24.291Z,-2.15
2023-01-28T18:20:59.059Z,-2.13
2023-01-28T18:23:26.181Z,-2.15
2023-01-28T18:25:57.582Z,-2.16
2023-01-28T18:28:25.071Z,-2.16
2023-01-28T18:30:52.324Z,-2.17
2023-01-28T18:33:20.148Z,-2.15
2023-01-28T18:35:47.782Z,-2.16
2023-01-28T18:38:15.639Z,-2.16
2023-01-28T18:40:44.548Z,-2.14
2023-01-28T18:43:12.283Z,-2.16
2023-01-28T18:45:41.033Z,-2.16
2023-01-28T18:48:09.457Z,-2.17
2023-01-28T18:50:36.539Z,-2.34
2023-01-28T18:53:03.662Z,-2.35
2023-01-28T18:55:30.712Z,-2.34
2023-01-28T18:57:59.465Z,-2.38
2023-01-28T19:00:26.810Z,-2.32
2023-01-28T19:02:53.921Z,-2.28
2023-01-28T19:05:22.456Z,-2.22
2023-01-28T19:07:49.496Z,-2.21
2023-01-28T19:10:16.953Z,-2.19
2023-01-28T19:12:44.031Z,-2.20
2023-01-28T19:15:11.119Z,-2.23
2023-01-28T19:17:38.246Z,-2.28
2023-01-28T19:20:06.589Z,-2.26
2023-01-28T19:22:33.690Z,-2.23
2023-01-28T19:25:00.795Z,-2.24
2023-01-28T19:27:27.879Z,-2.26
2023-01-28T19:29:54.946Z,-2.26
2023-01-28T19:32:22.023Z,-2.28
2023-01-28T19:34:49.105Z,-2.24
2023-01-28T19:37:17.003Z,-2.22
2023-01-28T19:39:44.586Z,-2.22
2023-01-28T19:42:11.844Z,-2.21
2023-01-28T19:44:38.929Z,-2.19
2023-01-28T19:47:06.172Z,-2.17
2023-01-28T19:49:33.350Z,-2.18
2023-01-28T19:52:00.831Z,-2.18
2023-01-28T19:54:28.071Z,-2.15
2023-01-28T19:56:55.164Z,-2.13
2023-01-28T19:59:22.406Z,-2.09
2023-01-28T20:01:49.674Z,-2.08
2023-01-28T20:04:16.854Z,-2.08
2023-01-28T20:06:43.948Z,-2.13
2023-01-28T20:09:16.831Z,-2.15
2023-01-28T20:11:43.989Z,-2.15
2023-01-28T20:14:21.501Z,-2.14
2023-01-28T20:16:49.111Z,-2.19
2023-01-28T20:19:18.824Z,-2.21
2023-01-28T20:21:46.886Z,-2.17
2023-01-28T20:24:14.945Z,-2.12
2023-01-28T20:26:43.178Z,-2.10
2023-01-28T20:29:12.458Z,-2.07
2023-01-28T20:31:41.727Z,-2.06
2023-01-28T20:34:15.954Z,-2.05
2023-01-28T20:36:43.272Z,-2.05
2023-01-28T20:39:10.692Z,-2.04
2023-01-28T20:41:37.746Z,-2.06
2023-01-28T20:44:04.917Z,-2.05
2023-01-28T20:46:33.051Z,-2.05
2023-01-28T20:49:02.972Z,-2.03
2023-01-28T20:51:34.572Z,-2.00
2023-01-28T20:54:03.259Z,-1.97
2023-01-28T20:56:31.149Z,-1.98
2023-01-28T20:59:04.102Z,-2.01
2023-01-28T21:01:33.958Z,-2.14
2023-01-28T21:04:01.203Z,-2.19
2023-01-28T21:06:28.876Z,-2.17
2023-01-28T21:08:57.202Z,-2.18
2023-01-28T21:11:25.345Z,-2.16
2023-01-28T21:13:53.047Z,-2.12
2023-01-28T21:16:20.135Z,-2.16
2023-01-28T21:18:47.344Z,-2.12
2023-01-28T21:21:24.770Z,-2.08
2023-01-28T21:23:54.749Z,-2.08
2023-01-28T21:26:21.866Z,-2.07
2023-01-28T21:28:48.927Z,-2.06
2023-01-28T21:31:22.272Z,-2.08
2023-01-28T21:33:50.824Z,-2.06
2023-01-28T21:36:18.610Z,-2.03
2023-01-28T21:38:51.546Z,-2.01
2023-01-28T21:41:18.632Z,-2.02
2023-01-28T21:43:49.044Z,-2.02
2023-01-28T21:46:16.164Z,-2.02
2023-01-28T21:48:43.405Z,-2.02
2023-01-28T21:51:28.961Z,-2.02
2023-01-28T21:53:56.077Z,-2.02
2023-01-28T21:56:23.191Z,-2.00
2023-01-28T21:59:08.992Z,-2.02
2023-01-28T22:01:36.303Z,-2.04
2023-01-28T22:04:03.712Z,-2.04
2023-01-28T22:06:30.788Z,-2.02
2023-01-28T22:08:57.963Z,-2.03
2023-01-28T22:11:25.005Z,-2.01
2023-01-28T22:13:52.111Z,-2.02
2023-01-28T22:16:19.216Z,-2.05
2023-01-28T22:18:47.576Z,-2.05
2023-01-28T22:21:14.958Z,-2.02
2023-01-28T22:23:42.224Z,-2.04
2023-01-28T22:26:09.430Z,-2.01
2023-01-28T22:28:36.864Z,-2.03
2023-01-28T22:31:15.098Z,-2.00
2023-01-28T22:33:42.561Z,-2.02
2023-01-28T22:36:13.268Z,-2.01
2023-01-28T22:38:41.854Z,-2.01
2023-01-28T22:41:22.647Z,-2.02
2023-01-28T22:43:53.079Z,-2.04
2023-01-28T22:46:22.247Z,-2.04
2023-01-28T22:48:49.911Z,-2.07
2023-01-28T22:51:21.913Z,-2.10
2023-01-28T22:53:49.875Z,-2.10
2023-01-28T22:56:19.625Z,-2.16
2023-01-28T22:58:46.906Z,-2.14
2023-01-28T23:01:15.586Z,-2.18
2023-01-28T23:03:49.475Z,-2.17
2023-01-28T23:06:18.107Z,-2.20
2023-01-28T23:08:46.103Z,-2.21
2023-01-28T23:11:25.345Z,-2.19
2023-01-28T23:14:13.441Z,-2.19
2023-01-28T23:16:59.267Z,-2.22
2023-01-28T23:19:45.194Z,-2.23
2023-01-28T23:22:32.519Z,-2.22
2023-01-28T23:24:59.645Z,-2.23
2023-01-28T23:27:26.699Z,-2.23
2023-01-28T23:29:53.762Z,-2.31
2023-01-28T23:32:21.424Z,-2.33
2023-01-28T23:34:48.480Z,-2.33
2023-01-28T23:37:16.133Z,-2.34
2023-01-28T23:39:43.458Z,-2.34
2023-01-28T23:42:10.461Z,-2.32
2023-01-28T23:44:37.510Z,-2.32
2023-01-28T23:47:04.604Z,-2.38
2023-01-28T23:49:31.689Z,-2.44
2023-01-28T23:51:58.790Z,-2.45
2023-01-28T23:54:25.855Z,-2.47
2023-01-28T23:56:53.026Z,-2.44
2023-01-28T23:59:20.228Z,-2.43
